sensor_id;sensor_type;location;lat;lon;timestamp;P1;durP1;ratioP1;P2;durP2;ratioP2
23362;SDS011;11853;48.080;11.960;2024-02-04T00:01:49;4.80;;;4.18;;
23362;SDS011;11853;48.080;11.960;2024-02-04T00:04:15;4.82;;;4.32;;
23362;SDS011;11853;48.080;11.960;2024-02-04T00:06:41;6.53;;;4.63;;
23362;SDS011;11853;48.080;11.960;2024-02-04T00:09:06;4.82;;;4.43;;
23362;SDS011;11853;48.080;11.960;2024-02-04T00:11:33;5.30;;;4.80;;
23362;SDS011;11853;48.080;11.960;2024-02-04T00:14:07;5.03;;;4.60;;
23362;SDS011;11853;48.080;11.960;2024-02-04T00:16:35;6.22;;;5.57;;
23362;SDS011;11853;48.080;11.960;2024-02-04T00:19:03;5.40;;;4.55;;
23362;SDS011;11853;48.080;11.960;2024-02-04T00:21:53;6.00;;;5.22;;
23362;SDS011;11853;48.080;11.960;2024-02-04T00:24:30;5.45;;;4.95;;
23362;SDS011;11853;48.080;11.960;2024-02-04T00:26:56;5.55;;;5.05;;
23362;SDS011;11853;48.080;11.960;2024-02-04T00:29:24;5.60;;;5.10;;
23362;SDS011;11853;48.080;11.960;2024-02-04T00:32:00;5.88;;;5.28;;
23362;SDS011;11853;48.080;11.960;2024-02-04T00:34:39;5.65;;;5.15;;
23362;SDS011;11853;48.080;11.960;2024-02-04T00:37:11;5.15;;;4.70;;
23362;SDS011;11853;48.080;11.960;2024-02-04T00:39:37;5.45;;;4.95;;
23362;SDS011;11853;48.080;11.960;2024-02-04T00:42:05;5.22;;;4.72;;
23362;SDS011;11853;48.080;11.960;2024-02-04T00:44:30;5.03;;;4.60;;
23362;SDS011;11853;48.080;11.960;2024-02-04T00:46:56;5.43;;;5.03;;
23362;SDS011;11853;48.080;11.960;2024-02-04T00:49:21;5.32;;;4.82;;
23362;SDS011;11853;48.080;11.960;2024-02-04T00:51:47;5.22;;;4.70;;
23362;SDS011;11853;48.080;11.960;2024-02-04T00:54:12;5.00;;;4.60;;
23362;SDS011;11853;48.080;11.960;2024-02-04T00:56:38;5.15;;;4.50;;
23362;SDS011;11853;48.080;11.960;2024-02-04T00:59:04;4.82;;;4.43;;
23362;SDS011;11853;48.080;11.960;2024-02-04T01:01:29;4.80;;;4.40;;
23362;SDS011;11853;48.080;11.960;2024-02-04T01:03:55;4.18;;;3.88;;
23362;SDS011;11853;48.080;11.960;2024-02-04T01:06:20;4.88;;;4.22;;
23362;SDS011;11853;48.080;11.960;2024-02-04T01:08:46;4.50;;;4.10;;
23362;SDS011;11853;48.080;11.960;2024-02-04T01:11:11;4.82;;;4.13;;
23362;SDS011;11853;48.080;11.960;2024-02-04T01:13:37;4.43;;;4.05;;
23362;SDS011;11853;48.080;11.960;2024-02-04T01:16:02;4.20;;;3.90;;
23362;SDS011;11853;48.080;11.960;2024-02-04T01:18:28;4.07;;;3.75;;
23362;SDS011;11853;48.080;11.960;2024-02-04T01:20:55;4.25;;;3.95;;
23362;SDS011;11853;48.080;11.960;2024-02-04T01:23:21;5.03;;;4.53;;
23362;SDS011;11853;48.080;11.960;2024-02-04T01:25:46;4.20;;;3.83;;
23362;SDS011;11853;48.080;11.960;2024-02-04T01:28:12;5.18;;;4.47;;
23362;SDS011;11853;48.080;11.960;2024-02-04T01:30:37;4.78;;;4.22;;
23362;SDS011;11853;48.080;11.960;2024-02-04T01:33:03;4.10;;;3.75;;
23362;SDS011;11853;48.080;11.960;2024-02-04T01:35:29;4.47;;;4.07;;
23362;SDS011;11853;48.080;11.960;2024-02-04T01:37:54;4.68;;;4.28;;
23362;SDS011;11853;48.080;11.960;2024-02-04T01:40:20;4.35;;;3.95;;
23362;SDS011;11853;48.080;11.960;2024-02-04T01:42:45;4.72;;;4.35;;
23362;SDS011;11853;48.080;11.960;2024-02-04T01:45:11;4.95;;;4.45;;
23362;SDS011;11853;48.080;11.960;2024-02-04T01:47:37;5.60;;;4.50;;
23362;SDS011;11853;48.080;11.960;2024-02-04T01:50:02;5.25;;;4.75;;
23362;SDS011;11853;48.080;11.960;2024-02-04T01:52:29;6.28;;;5.00;;
23362;SDS011;11853;48.080;11.960;2024-02-04T01:54:56;5.03;;;4.63;;
23362;SDS011;11853;48.080;11.960;2024-02-04T01:57:24;5.15;;;4.75;;
23362;SDS011;11853;48.080;11.960;2024-02-04T01:59:49;5.35;;;4.90;;
23362;SDS011;11853;48.080;11.960;2024-02-04T02:02:17;4.75;;;4.35;;
23362;SDS011;11853;48.080;11.960;2024-02-04T02:04:43;5.55;;;5.05;;
23362;SDS011;11853;48.080;11.960;2024-02-04T02:07:09;6.13;;;4.55;;
23362;SDS011;11853;48.080;11.960;2024-02-04T02:09:35;5.03;;;4.63;;
23362;SDS011;11853;48.080;11.960;2024-02-04T02:14:26;4.78;;;4.38;;
23362;SDS011;11853;48.080;11.960;2024-02-04T02:16:56;4.80;;;4.40;;
23362;SDS011;11853;48.080;11.960;2024-02-04T02:25:20;5.50;;;5.07;;
23362;SDS011;11853;48.080;11.960;2024-02-04T02:27:47;5.45;;;4.95;;
23362;SDS011;11853;48.080;11.960;2024-02-04T02:30:16;5.10;;;4.40;;
23362;SDS011;11853;48.080;11.960;2024-02-04T02:32:43;5.38;;;4.88;;
23362;SDS011;11853;48.080;11.960;2024-02-04T02:35:14;4.90;;;4.50;;
23362;SDS011;11853;48.080;11.960;2024-02-04T02:40:54;4.82;;;4.43;;
23362;SDS011;11853;48.080;11.960;2024-02-04T02:43:23;4.60;;;4.20;;
23362;SDS011;11853;48.080;11.960;2024-02-04T02:45:50;4.32;;;4.03;;
23362;SDS011;11853;48.080;11.960;2024-02-04T02:48:17;5.00;;;4.55;;
23362;SDS011;11853;48.080;11.960;2024-02-04T02:50:43;4.57;;;4.18;;
23362;SDS011;11853;48.080;11.960;2024-02-04T02:53:09;5.45;;;4.32;;
23362;SDS011;11853;48.080;11.960;2024-02-04T02:55:34;4.28;;;3.88;;
23362;SDS011;11853;48.080;11.960;2024-02-04T02:58:00;4.35;;;3.97;;
23362;SDS011;11853;48.080;11.960;2024-02-04T03:00:25;4.70;;;4.30;;
23362;SDS011;11853;48.080;11.960;2024-02-04T03:02:51;4.53;;;4.20;;
23362;SDS011;11853;48.080;11.960;2024-02-04T03:05:16;5.80;;;5.00;;
23362;SDS011;11853;48.080;11.960;2024-02-04T03:07:42;4.70;;;4.30;;
23362;SDS011;11853;48.080;11.960;2024-02-04T03:10:08;4.40;;;4.00;;
23362;SDS011;11853;48.080;11.960;2024-02-04T03:12:34;4.85;;;4.40;;
23362;SDS011;11853;48.080;11.960;2024-02-04T03:15:00;4.75;;;4.35;;
23362;SDS011;11853;48.080;11.960;2024-02-04T03:17:26;5.10;;;4.00;;
23362;SDS011;11853;48.080;11.960;2024-02-04T03:19:51;4.38;;;3.97;;
23362;SDS011;11853;48.080;11.960;2024-02-04T03:22:19;4.75;;;4.35;;
23362;SDS011;11853;48.080;11.960;2024-02-04T03:24:46;5.18;;;4.68;;
23362;SDS011;11853;48.080;11.960;2024-02-04T03:27:12;4.32;;;3.92;;
23362;SDS011;11853;48.080;11.960;2024-02-04T03:29:38;4.88;;;4.47;;
23362;SDS011;11853;48.080;11.960;2024-02-04T03:32:03;4.68;;;4.07;;
23362;SDS011;11853;48.080;11.960;2024-02-04T03:34:29;4.00;;;3.70;;
23362;SDS011;11853;48.080;11.960;2024-02-04T03:36:55;4.25;;;3.80;;
23362;SDS011;11853;48.080;11.960;2024-02-04T03:39:20;4.40;;;4.00;;
23362;SDS011;11853;48.080;11.960;2024-02-04T03:41:46;4.22;;;3.92;;
23362;SDS011;11853;48.080;11.960;2024-02-04T03:44:11;3.83;;;3.53;;
23362;SDS011;11853;48.080;11.960;2024-02-04T03:46:37;4.38;;;4.00;;
23362;SDS011;11853;48.080;11.960;2024-02-04T03:49:05;4.13;;;3.72;;
23362;SDS011;11853;48.080;11.960;2024-02-04T03:51:32;4.15;;;3.75;;
23362;SDS011;11853;48.080;11.960;2024-02-04T03:53:58;4.47;;;4.07;;
23362;SDS011;11853;48.080;11.960;2024-02-04T03:56:23;4.75;;;4.35;;
23362;SDS011;11853;48.080;11.960;2024-02-04T03:58:49;4.68;;;4.28;;
23362;SDS011;11853;48.080;11.960;2024-02-04T04:01:15;4.47;;;4.07;;
23362;SDS011;11853;48.080;11.960;2024-02-04T04:03:41;4.20;;;3.80;;
23362;SDS011;11853;48.080;11.960;2024-02-04T04:06:08;4.13;;;3.83;;
23362;SDS011;11853;48.080;11.960;2024-02-04T04:08:34;4.68;;;4.20;;
23362;SDS011;11853;48.080;11.960;2024-02-04T04:11:00;4.45;;;4.05;;
23362;SDS011;11853;48.080;11.960;2024-02-04T04:13:25;4.45;;;4.07;;
23362;SDS011;11853;48.080;11.960;2024-02-04T04:15:51;4.70;;;4.30;;
23362;SDS011;11853;48.080;11.960;2024-02-04T04:18:17;4.22;;;3.88;;
23362;SDS011;11853;48.080;11.960;2024-02-04T04:20:42;4.68;;;4.28;;
23362;SDS011;11853;48.080;11.960;2024-02-04T04:23:08;4.78;;;4.38;;
23362;SDS011;11853;48.080;11.960;2024-02-04T04:25:33;4.03;;;3.70;;
23362;SDS011;11853;48.080;11.960;2024-02-04T04:27:59;4.50;;;4.20;;
23362;SDS011;11853;48.080;11.960;2024-02-04T04:30:24;4.30;;;4.00;;
23362;SDS011;11853;48.080;11.960;2024-02-04T04:32:50;4.22;;;3.83;;
23362;SDS011;11853;48.080;11.960;2024-02-04T04:35:15;4.18;;;3.75;;
23362;SDS011;11853;48.080;11.960;2024-02-04T04:37:41;4.43;;;4.03;;
23362;SDS011;11853;48.080;11.960;2024-02-04T04:40:07;4.00;;;3.70;;
23362;SDS011;11853;48.080;11.960;2024-02-04T04:42:33;5.32;;;4.30;;
23362;SDS011;11853;48.080;11.960;2024-02-04T04:44:58;4.22;;;3.92;;
23362;SDS011;11853;48.080;11.960;2024-02-04T04:47:24;3.95;;;3.65;;
23362;SDS011;11853;48.080;11.960;2024-02-04T04:49:49;4.22;;;3.90;;
23362;SDS011;11853;48.080;11.960;2024-02-04T04:52:16;3.97;;;3.67;;
23362;SDS011;11853;48.080;11.960;2024-02-04T04:54:42;4.25;;;3.88;;
23362;SDS011;11853;48.080;11.960;2024-02-04T04:57:07;3.92;;;3.60;;
23362;SDS011;11853;48.080;11.960;2024-02-04T04:59:33;4.43;;;3.85;;
23362;SDS011;11853;48.080;11.960;2024-02-04T05:02:01;4.50;;;4.00;;
23362;SDS011;11853;48.080;11.960;2024-02-04T05:04:26;4.00;;;3.35;;
23362;SDS011;11853;48.080;11.960;2024-02-04T05:06:52;3.97;;;3.50;;
23362;SDS011;11853;48.080;11.960;2024-02-04T05:09:18;4.60;;;3.67;;
23362;SDS011;11853;48.080;11.960;2024-02-04T05:11:43;3.47;;;3.20;;
23362;SDS011;11853;48.080;11.960;2024-02-04T05:14:09;3.60;;;3.35;;
23362;SDS011;11853;48.080;11.960;2024-02-04T05:16:34;3.40;;;3.10;;
23362;SDS011;11853;48.080;11.960;2024-02-04T05:19:01;4.25;;;3.45;;
23362;SDS011;11853;48.080;11.960;2024-02-04T05:21:29;3.60;;;3.30;;
23362;SDS011;11853;48.080;11.960;2024-02-04T05:23:54;3.60;;;3.30;;
23362;SDS011;11853;48.080;11.960;2024-02-04T05:26:20;3.53;;;3.10;;
23362;SDS011;11853;48.080;11.960;2024-02-04T05:28:46;3.10;;;2.90;;
23362;SDS011;11853;48.080;11.960;2024-02-04T05:31:11;3.22;;;2.92;;
23362;SDS011;11853;48.080;11.960;2024-02-04T05:33:37;3.30;;;3.00;;
23362;SDS011;11853;48.080;11.960;2024-02-04T05:36:02;3.25;;;2.92;;
23362;SDS011;11853;48.080;11.960;2024-02-04T05:38:29;3.35;;;3.05;;
23362;SDS011;11853;48.080;11.960;2024-02-04T05:40:55;3.75;;;3.00;;
23362;SDS011;11853;48.080;11.960;2024-02-04T05:43:21;3.05;;;2.80;;
23362;SDS011;11853;48.080;11.960;2024-02-04T05:45:46;4.13;;;2.53;;
23362;SDS011;11853;48.080;11.960;2024-02-04T05:48:12;3.95;;;2.70;;
23362;SDS011;11853;48.080;11.960;2024-02-04T05:50:38;3.00;;;2.70;;
23362;SDS011;11853;48.080;11.960;2024-02-04T05:53:04;3.13;;;2.88;;
23362;SDS011;11853;48.080;11.960;2024-02-04T05:55:29;5.03;;;2.78;;
23362;SDS011;11853;48.080;11.960;2024-02-04T05:57:55;3.13;;;2.67;;
23362;SDS011;11853;48.080;11.960;2024-02-04T06:00:21;3.38;;;2.20;;
23362;SDS011;11853;48.080;11.960;2024-02-04T06:02:46;2.72;;;2.53;;
23362;SDS011;11853;48.080;11.960;2024-02-04T06:05:12;2.28;;;2.15;;
23362;SDS011;11853;48.080;11.960;2024-02-04T06:07:38;4.57;;;3.00;;
23362;SDS011;11853;48.080;11.960;2024-02-04T06:10:08;2.95;;;2.75;;
23362;SDS011;11853;48.080;11.960;2024-02-04T06:12:34;2.90;;;2.60;;
23362;SDS011;11853;48.080;11.960;2024-02-04T06:14:59;5.38;;;2.72;;
23362;SDS011;11853;48.080;11.960;2024-02-04T06:17:25;2.60;;;2.40;;
23362;SDS011;11853;48.080;11.960;2024-02-04T06:19:51;3.40;;;2.30;;
23362;SDS011;11853;48.080;11.960;2024-02-04T06:22:16;3.78;;;2.83;;
23362;SDS011;11853;48.080;11.960;2024-02-04T06:24:42;2.85;;;2.47;;
23362;SDS011;11853;48.080;11.960;2024-02-04T06:27:07;2.60;;;2.40;;
23362;SDS011;11853;48.080;11.960;2024-02-04T06:29:33;4.78;;;2.70;;
23362;SDS011;11853;48.080;11.960;2024-02-04T06:31:59;2.72;;;2.53;;
23362;SDS011;11853;48.080;11.960;2024-02-04T06:34:25;3.55;;;2.85;;
23362;SDS011;11853;48.080;11.960;2024-02-04T06:36:50;5.93;;;5.20;;
23362;SDS011;11853;48.080;11.960;2024-02-04T06:39:16;6.38;;;4.65;;
23362;SDS011;11853;48.080;11.960;2024-02-04T06:41:41;3.70;;;2.97;;
23362;SDS011;11853;48.080;11.960;2024-02-04T06:44:07;2.65;;;2.45;;
23362;SDS011;11853;48.080;11.960;2024-02-04T06:46:33;4.55;;;2.63;;
23362;SDS011;11853;48.080;11.960;2024-02-04T06:48:58;2.80;;;2.53;;
23362;SDS011;11853;48.080;11.960;2024-02-04T06:51:24;3.28;;;2.60;;
23362;SDS011;11853;48.080;11.960;2024-02-04T06:53:49;4.80;;;3.13;;
23362;SDS011;11853;48.080;11.960;2024-02-04T06:56:15;6.25;;;2.78;;
23362;SDS011;11853;48.080;11.960;2024-02-04T06:58:41;4.70;;;2.88;;
23362;SDS011;11853;48.080;11.960;2024-02-04T07:01:07;3.58;;;2.67;;
23362;SDS011;11853;48.080;11.960;2024-02-04T07:03:32;3.70;;;2.80;;
23362;SDS011;11853;48.080;11.960;2024-02-04T07:05:59;3.50;;;2.72;;
23362;SDS011;11853;48.080;11.960;2024-02-04T07:08:24;4.35;;;2.90;;
23362;SDS011;11853;48.080;11.960;2024-02-04T07:10:50;5.40;;;3.42;;
23362;SDS011;11853;48.080;11.960;2024-02-04T07:13:16;3.70;;;3.10;;
23362;SDS011;11853;48.080;11.960;2024-02-04T07:15:42;3.08;;;2.67;;
23362;SDS011;11853;48.080;11.960;2024-02-04T07:18:07;5.35;;;2.90;;
23362;SDS011;11853;48.080;11.960;2024-02-04T07:20:33;4.35;;;2.80;;
23362;SDS011;11853;48.080;11.960;2024-02-04T07:22:58;4.15;;;3.15;;
23362;SDS011;11853;48.080;11.960;2024-02-04T07:25:24;6.00;;;3.28;;
23362;SDS011;11853;48.080;11.960;2024-02-04T07:27:49;4.53;;;3.42;;
23362;SDS011;11853;48.080;11.960;2024-02-04T07:30:15;5.30;;;3.70;;
23362;SDS011;11853;48.080;11.960;2024-02-04T07:32:41;6.30;;;3.30;;
23362;SDS011;11853;48.080;11.960;2024-02-04T07:35:06;5.70;;;4.25;;
23362;SDS011;11853;48.080;11.960;2024-02-04T07:37:34;6.75;;;4.85;;
23362;SDS011;11853;48.080;11.960;2024-02-04T07:40:00;5.32;;;4.22;;
23362;SDS011;11853;48.080;11.960;2024-02-04T07:42:26;6.20;;;3.88;;
23362;SDS011;11853;48.080;11.960;2024-02-04T07:44:52;5.57;;;4.18;;
23362;SDS011;11853;48.080;11.960;2024-02-04T07:47:18;5.80;;;4.00;;
23362;SDS011;11853;48.080;11.960;2024-02-04T07:49:46;3.88;;;3.55;;
23362;SDS011;11853;48.080;11.960;2024-02-04T07:52:13;8.82;;;5.18;;
23362;SDS011;11853;48.080;11.960;2024-02-04T07:54:38;7.28;;;5.60;;
23362;SDS011;11853;48.080;11.960;2024-02-04T07:57:04;8.20;;;4.32;;
23362;SDS011;11853;48.080;11.960;2024-02-04T07:59:30;7.72;;;4.72;;
23362;SDS011;11853;48.080;11.960;2024-02-04T08:01:55;7.43;;;4.30;;
23362;SDS011;11853;48.080;11.960;2024-02-04T08:04:21;6.97;;;3.70;;
23362;SDS011;11853;48.080;11.960;2024-02-04T08:06:46;5.15;;;4.50;;
23362;SDS011;11853;48.080;11.960;2024-02-04T08:09:12;5.60;;;3.80;;
23362;SDS011;11853;48.080;11.960;2024-02-04T08:11:38;7.20;;;4.78;;
23362;SDS011;11853;48.080;11.960;2024-02-04T08:14:03;6.25;;;4.78;;
23362;SDS011;11853;48.080;11.960;2024-02-04T08:16:29;6.93;;;4.57;;
23362;SDS011;11853;48.080;11.960;2024-02-04T08:18:54;5.22;;;4.22;;
23362;SDS011;11853;48.080;11.960;2024-02-04T08:21:20;8.75;;;4.60;;
23362;SDS011;11853;48.080;11.960;2024-02-04T08:23:46;11.15;;;4.57;;
23362;SDS011;11853;48.080;11.960;2024-02-04T08:26:11;5.15;;;4.50;;
23362;SDS011;11853;48.080;11.960;2024-02-04T08:28:38;6.88;;;4.35;;
23362;SDS011;11853;48.080;11.960;2024-02-04T08:31:03;8.25;;;4.43;;
23362;SDS011;11853;48.080;11.960;2024-02-04T08:33:29;7.32;;;4.43;;
23362;SDS011;11853;48.080;11.960;2024-02-04T08:35:54;9.18;;;5.00;;
23362;SDS011;11853;48.080;11.960;2024-02-04T08:38:20;8.00;;;4.50;;
23362;SDS011;11853;48.080;11.960;2024-02-04T08:40:45;8.82;;;4.43;;
23362;SDS011;11853;48.080;11.960;2024-02-04T08:43:12;8.35;;;4.80;;
23362;SDS011;11853;48.080;11.960;2024-02-04T08:45:37;8.73;;;5.22;;
23362;SDS011;11853;48.080;11.960;2024-02-04T08:48:03;8.77;;;5.10;;
23362;SDS011;11853;48.080;11.960;2024-02-04T08:50:29;7.75;;;4.40;;
23362;SDS011;11853;48.080;11.960;2024-02-04T08:52:55;6.65;;;4.72;;
23362;SDS011;11853;48.080;11.960;2024-02-04T08:55:21;5.57;;;3.80;;
23362;SDS011;11853;48.080;11.960;2024-02-04T08:57:46;10.43;;;5.80;;
23362;SDS011;11853;48.080;11.960;2024-02-04T09:00:15;6.78;;;4.15;;
23362;SDS011;11853;48.080;11.960;2024-02-04T09:02:41;12.27;;;6.25;;
23362;SDS011;11853;48.080;11.960;2024-02-04T09:05:08;9.80;;;6.85;;
23362;SDS011;11853;48.080;11.960;2024-02-04T09:07:33;8.43;;;5.05;;
23362;SDS011;11853;48.080;11.960;2024-02-04T09:09:59;8.38;;;4.50;;
23362;SDS011;11853;48.080;11.960;2024-02-04T09:12:24;7.30;;;4.68;;
23362;SDS011;11853;48.080;11.960;2024-02-04T09:14:50;6.20;;;4.32;;
23362;SDS011;11853;48.080;11.960;2024-02-04T09:17:15;7.30;;;4.30;;
23362;SDS011;11853;48.080;11.960;2024-02-04T09:19:41;10.32;;;3.97;;
23362;SDS011;11853;48.080;11.960;2024-02-04T09:22:07;6.82;;;3.63;;
23362;SDS011;11853;48.080;11.960;2024-02-04T09:24:33;3.45;;;2.88;;
23362;SDS011;11853;48.080;11.960;2024-02-04T09:26:58;8.45;;;3.47;;
23362;SDS011;11853;48.080;11.960;2024-02-04T09:29:24;5.00;;;3.10;;
23362;SDS011;11853;48.080;11.960;2024-02-04T09:31:51;7.22;;;3.03;;
23362;SDS011;11853;48.080;11.960;2024-02-04T09:34:18;15.52;;;5.82;;
23362;SDS011;11853;48.080;11.960;2024-02-04T09:36:44;7.55;;;3.60;;
23362;SDS011;11853;48.080;11.960;2024-02-04T09:39:11;5.25;;;2.78;;
23362;SDS011;11853;48.080;11.960;2024-02-04T09:41:36;6.90;;;3.20;;
23362;SDS011;11853;48.080;11.960;2024-02-04T09:44:02;8.10;;;3.25;;
23362;SDS011;11853;48.080;11.960;2024-02-04T09:46:29;9.85;;;3.30;;
23362;SDS011;11853;48.080;11.960;2024-02-04T09:48:58;6.20;;;3.00;;
23362;SDS011;11853;48.080;11.960;2024-02-04T09:51:27;4.78;;;3.05;;
23362;SDS011;11853;48.080;11.960;2024-02-04T09:53:53;7.10;;;3.42;;
23362;SDS011;11853;48.080;11.960;2024-02-04T09:56:25;9.25;;;4.35;;
23362;SDS011;11853;48.080;11.960;2024-02-04T09:58:51;10.15;;;4.60;;
23362;SDS011;11853;48.080;11.960;2024-02-04T10:01:18;7.07;;;3.80;;
23362;SDS011;11853;48.080;11.960;2024-02-04T10:03:46;8.00;;;3.28;;
23362;SDS011;11853;48.080;11.960;2024-02-04T10:06:12;8.10;;;3.80;;
23362;SDS011;11853;48.080;11.960;2024-02-04T10:08:38;5.97;;;3.08;;
23362;SDS011;11853;48.080;11.960;2024-02-04T10:11:04;5.38;;;2.83;;
23362;SDS011;11853;48.080;11.960;2024-02-04T10:13:29;5.63;;;3.35;;
23362;SDS011;11853;48.080;11.960;2024-02-04T10:15:55;6.95;;;3.72;;
23362;SDS011;11853;48.080;11.960;2024-02-04T10:18:21;4.45;;;3.05;;
23362;SDS011;11853;48.080;11.960;2024-02-04T10:20:47;6.55;;;3.97;;
23362;SDS011;11853;48.080;11.960;2024-02-04T10:23:13;3.90;;;3.05;;
23362;SDS011;11853;48.080;11.960;2024-02-04T10:25:39;4.50;;;3.45;;
23362;SDS011;11853;48.080;11.960;2024-02-04T10:28:05;4.68;;;3.30;;
23362;SDS011;11853;48.080;11.960;2024-02-04T10:30:30;5.65;;;3.22;;
23362;SDS011;11853;48.080;11.960;2024-02-04T10:32:56;8.25;;;4.25;;
23362;SDS011;11853;48.080;11.960;2024-02-04T10:35:22;7.57;;;2.85;;
23362;SDS011;11853;48.080;11.960;2024-02-04T10:37:48;7.32;;;3.90;;
23362;SDS011;11853;48.080;11.960;2024-02-04T10:40:15;4.38;;;3.28;;
23362;SDS011;11853;48.080;11.960;2024-02-04T10:42:42;5.93;;;3.55;;
23362;SDS011;11853;48.080;11.960;2024-02-04T10:45:09;6.18;;;2.95;;
23362;SDS011;11853;48.080;11.960;2024-02-04T10:47:38;3.83;;;2.78;;
23362;SDS011;11853;48.080;11.960;2024-02-04T10:50:05;6.30;;;2.97;;
23362;SDS011;11853;48.080;11.960;2024-02-04T10:52:37;3.58;;;3.05;;
23362;SDS011;11853;48.080;11.960;2024-02-04T10:55:07;4.47;;;3.25;;
23362;SDS011;11853;48.080;11.960;2024-02-04T10:57:37;6.00;;;3.38;;
23362;SDS011;11853;48.080;11.960;2024-02-04T11:00:04;6.80;;;3.40;;
23362;SDS011;11853;48.080;11.960;2024-02-04T11:02:33;4.20;;;3.63;;
23362;SDS011;11853;48.080;11.960;2024-02-04T11:05:00;4.55;;;2.80;;
23362;SDS011;11853;48.080;11.960;2024-02-04T11:07:27;3.22;;;2.67;;
23362;SDS011;11853;48.080;11.960;2024-02-04T11:10:02;4.15;;;2.65;;
23362;SDS011;11853;48.080;11.960;2024-02-04T11:12:42;6.85;;;2.65;;
23362;SDS011;11853;48.080;11.960;2024-02-04T11:15:10;3.42;;;2.50;;
23362;SDS011;11853;48.080;11.960;2024-02-04T11:26:41;4.45;;;2.42;;
23362;SDS011;11853;48.080;11.960;2024-02-04T11:29:09;3.20;;;2.47;;
23362;SDS011;11853;48.080;11.960;2024-02-04T11:31:37;6.63;;;2.65;;
23362;SDS011;11853;48.080;11.960;2024-02-04T11:34:04;5.85;;;2.63;;
23362;SDS011;11853;48.080;11.960;2024-02-04T11:36:37;2.53;;;2.05;;
23362;SDS011;11853;48.080;11.960;2024-02-04T11:39:14;4.35;;;2.38;;
23362;SDS011;11853;48.080;11.960;2024-02-04T11:41:49;3.38;;;2.05;;
23362;SDS011;11853;48.080;11.960;2024-02-04T11:46:50;3.40;;;2.17;;
23362;SDS011;11853;48.080;11.960;2024-02-04T11:49:17;4.82;;;2.20;;
23362;SDS011;11853;48.080;11.960;2024-02-04T11:51:47;2.70;;;2.30;;
23362;SDS011;11853;48.080;11.960;2024-02-04T11:54:15;4.43;;;3.15;;
23362;SDS011;11853;48.080;11.960;2024-02-04T11:56:44;6.53;;;2.55;;
23362;SDS011;11853;48.080;11.960;2024-02-04T11:59:10;4.57;;;2.70;;
23362;SDS011;11853;48.080;11.960;2024-02-04T12:01:37;3.45;;;2.17;;
23362;SDS011;11853;48.080;11.960;2024-02-04T12:04:10;4.53;;;2.03;;
23362;SDS011;11853;48.080;11.960;2024-02-04T12:06:38;3.75;;;2.00;;
23362;SDS011;11853;48.080;11.960;2024-02-04T12:09:05;3.28;;;1.90;;
23362;SDS011;11853;48.080;11.960;2024-02-04T12:11:32;2.78;;;1.65;;
23362;SDS011;11853;48.080;11.960;2024-02-04T12:13:59;3.53;;;1.85;;
23362;SDS011;11853;48.080;11.960;2024-02-04T12:16:26;4.80;;;2.13;;
23362;SDS011;11853;48.080;11.960;2024-02-04T12:18:52;4.22;;;2.10;;
23362;SDS011;11853;48.080;11.960;2024-02-04T12:21:17;1.95;;;1.75;;
23362;SDS011;11853;48.080;11.960;2024-02-04T12:23:43;1.80;;;1.70;;
23362;SDS011;11853;48.080;11.960;2024-02-04T12:26:09;2.35;;;1.80;;
23362;SDS011;11853;48.080;11.960;2024-02-04T12:28:34;1.60;;;1.40;;
23362;SDS011;11853;48.080;11.960;2024-02-04T12:31:00;2.80;;;1.33;;
23362;SDS011;11853;48.080;11.960;2024-02-04T12:33:25;3.05;;;1.40;;
23362;SDS011;11853;48.080;11.960;2024-02-04T12:35:51;3.90;;;1.17;;
23362;SDS011;11853;48.080;11.960;2024-02-04T12:38:17;2.17;;;1.20;;
23362;SDS011;11853;48.080;11.960;2024-02-04T12:40:43;2.83;;;1.35;;
23362;SDS011;11853;48.080;11.960;2024-02-04T12:43:10;1.95;;;1.30;;
23362;SDS011;11853;48.080;11.960;2024-02-04T12:45:36;2.03;;;1.58;;
23362;SDS011;11853;48.080;11.960;2024-02-04T12:48:02;1.52;;;1.15;;
23362;SDS011;11853;48.080;11.960;2024-02-04T12:50:28;1.60;;;1.13;;
23362;SDS011;11853;48.080;11.960;2024-02-04T12:53:07;2.97;;;1.42;;
23362;SDS011;11853;48.080;11.960;2024-02-04T12:55:37;3.97;;;2.00;;
23362;SDS011;11853;48.080;11.960;2024-02-04T12:58:06;3.55;;;1.92;;
23362;SDS011;11853;48.080;11.960;2024-02-04T13:00:33;2.38;;;1.58;;
23362;SDS011;11853;48.080;11.960;2024-02-04T13:03:01;1.77;;;1.58;;
23362;SDS011;11853;48.080;11.960;2024-02-04T13:05:28;3.13;;;2.00;;
23362;SDS011;11853;48.080;11.960;2024-02-04T13:07:59;2.33;;;1.80;;
23362;SDS011;11853;48.080;11.960;2024-02-04T13:10:27;5.07;;;2.00;;
23362;SDS011;11853;48.080;11.960;2024-02-04T13:15:37;2.78;;;1.50;;
23362;SDS011;11853;48.080;11.960;2024-02-04T13:18:05;6.07;;;1.75;;
23362;SDS011;11853;48.080;11.960;2024-02-04T13:20:31;3.50;;;1.50;;
23362;SDS011;11853;48.080;11.960;2024-02-04T13:22:56;3.53;;;1.90;;
23362;SDS011;11853;48.080;11.960;2024-02-04T13:25:23;1.42;;;1.33;;
23362;SDS011;11853;48.080;11.960;2024-02-04T13:27:49;4.07;;;2.42;;
23362;SDS011;11853;48.080;11.960;2024-02-04T13:30:18;3.97;;;1.90;;
23362;SDS011;11853;48.080;11.960;2024-02-04T13:32:44;4.65;;;1.67;;
23362;SDS011;11853;48.080;11.960;2024-02-04T13:35:10;2.72;;;1.70;;
23362;SDS011;11853;48.080;11.960;2024-02-04T13:37:40;3.95;;;1.88;;
23362;SDS011;11853;48.080;11.960;2024-02-04T13:40:11;2.50;;;1.65;;
23362;SDS011;11853;48.080;11.960;2024-02-04T13:42:38;4.10;;;1.45;;
23362;SDS011;11853;48.080;11.960;2024-02-04T13:45:04;5.45;;;2.50;;
23362;SDS011;11853;48.080;11.960;2024-02-04T13:47:31;3.72;;;2.30;;
23362;SDS011;11853;48.080;11.960;2024-02-04T13:49:56;6.28;;;1.60;;
23362;SDS011;11853;48.080;11.960;2024-02-04T13:52:22;2.22;;;1.55;;
23362;SDS011;11853;48.080;11.960;2024-02-04T13:54:48;4.43;;;1.77;;
23362;SDS011;11853;48.080;11.960;2024-02-04T13:57:16;3.47;;;1.80;;
23362;SDS011;11853;48.080;11.960;2024-02-04T13:59:42;3.70;;;1.58;;
23362;SDS011;11853;48.080;11.960;2024-02-04T14:02:08;7.10;;;3.47;;
23362;SDS011;11853;48.080;11.960;2024-02-04T14:04:34;2.75;;;1.80;;
23362;SDS011;11853;48.080;11.960;2024-02-04T14:07:03;2.88;;;1.40;;
23362;SDS011;11853;48.080;11.960;2024-02-04T14:09:28;2.15;;;1.35;;
23362;SDS011;11853;48.080;11.960;2024-02-04T14:11:54;4.40;;;1.58;;
23362;SDS011;11853;48.080;11.960;2024-02-04T14:14:28;5.15;;;1.80;;
23362;SDS011;11853;48.080;11.960;2024-02-04T14:16:57;5.40;;;2.30;;
23362;SDS011;11853;48.080;11.960;2024-02-04T14:19:26;2.30;;;1.30;;
23362;SDS011;11853;48.080;11.960;2024-02-04T14:21:51;3.13;;;1.70;;
23362;SDS011;11853;48.080;11.960;2024-02-04T14:24:18;4.82;;;2.28;;
23362;SDS011;11853;48.080;11.960;2024-02-04T14:26:44;6.47;;;2.30;;
23362;SDS011;11853;48.080;11.960;2024-02-04T14:29:12;6.90;;;2.53;;
23362;SDS011;11853;48.080;11.960;2024-02-04T14:31:43;4.38;;;2.80;;
23362;SDS011;11853;48.080;11.960;2024-02-04T14:34:21;2.95;;;2.50;;
23362;SDS011;11853;48.080;11.960;2024-02-04T14:36:49;4.78;;;2.10;;
23362;SDS011;11853;48.080;11.960;2024-02-04T14:39:15;4.10;;;1.95;;
23362;SDS011;11853;48.080;11.960;2024-02-04T14:41:41;2.42;;;1.50;;
23362;SDS011;11853;48.080;11.960;2024-02-04T14:44:07;3.53;;;1.83;;
23362;SDS011;11853;48.080;11.960;2024-02-04T14:46:35;2.03;;;1.52;;
23362;SDS011;11853;48.080;11.960;2024-02-04T14:49:05;4.03;;;2.10;;
23362;SDS011;11853;48.080;11.960;2024-02-04T14:51:31;4.07;;;1.77;;
23362;SDS011;11853;48.080;11.960;2024-02-04T14:53:57;4.35;;;1.80;;
23362;SDS011;11853;48.080;11.960;2024-02-04T14:56:23;3.38;;;1.48;;